createdAt,value
2019-02-18T00:00:29.865Z,3.30
2019-02-18T00:02:58.393Z,3.37
2019-02-18T00:05:27.041Z,3.23
2019-02-18T00:07:55.644Z,3.00
2019-02-18T00:10:25.767Z,3.60
2019-02-18T00:12:54.464Z,3.73
2019-02-18T00:15:23.073Z,3.17
2019-02-18T00:17:51.698Z,3.00
2019-02-18T00:20:20.242Z,3.10
2019-02-18T00:22:48.885Z,3.10
2019-02-18T00:25:17.409Z,3.00
2019-02-18T00:27:46.035Z,2.67
2019-02-18T00:30:14.801Z,2.73
2019-02-18T00:32:43.361Z,2.93
2019-02-18T00:35:12.048Z,3.40
2019-02-18T00:37:40.860Z,2.70
2019-02-18T00:40:10.298Z,3.30
2019-02-18T00:42:38.911Z,2.93
2019-02-18T00:45:12.258Z,3.03
2019-02-18T00:47:40.964Z,3.20
2019-02-18T00:50:10.593Z,2.60
2019-02-18T00:52:39.147Z,3.60
2019-02-18T00:55:08.722Z,3.60
2019-02-18T00:57:37.358Z,3.40
2019-02-18T01:00:09.519Z,2.77
2019-02-18T01:02:38.225Z,2.80
2019-02-18T01:05:07.706Z,2.90
2019-02-18T01:07:36.413Z,2.83
2019-02-18T01:10:07.731Z,2.60
2019-02-18T01:12:36.332Z,2.83
2019-02-18T01:15:07.685Z,2.87
2019-02-18T01:17:36.243Z,2.87
2019-02-18T01:20:07.554Z,2.63
2019-02-18T01:22:36.153Z,2.53
2019-02-18T01:25:06.392Z,2.93
2019-02-18T01:27:34.927Z,2.70
2019-02-18T01:30:04.811Z,2.60
2019-02-18T01:32:33.338Z,2.57
2019-02-18T01:35:01.922Z,2.50
2019-02-18T01:37:30.536Z,2.60
2019-02-18T01:39:59.233Z,3.00
2019-02-18T01:42:27.847Z,2.70
2019-02-18T01:44:56.537Z,2.80
2019-02-18T01:47:25.126Z,2.77
2019-02-18T01:49:53.765Z,2.90
2019-02-18T01:52:22.351Z,2.60
2019-02-18T01:54:50.961Z,3.10
2019-02-18T01:57:19.636Z,2.57
2019-02-18T01:59:48.141Z,3.20
2019-02-18T02:02:16.772Z,2.87
2019-02-18T02:04:45.390Z,2.73
2019-02-18T02:07:13.964Z,3.10
2019-02-18T02:09:42.662Z,2.40
2019-02-18T02:12:11.243Z,2.60
2019-02-18T02:14:39.767Z,3.00
2019-02-18T02:17:08.333Z,2.80
2019-02-18T02:19:37.118Z,2.50
2019-02-18T02:22:05.775Z,2.97
2019-02-18T02:24:34.306Z,3.20
2019-02-18T02:27:02.850Z,2.90
2019-02-18T02:29:31.691Z,2.47
2019-02-18T02:32:00.233Z,2.73
2019-02-18T02:34:28.794Z,2.60
2019-02-18T02:36:57.404Z,2.43
2019-02-18T02:39:26.046Z,2.87
2019-02-18T02:41:54.709Z,2.60
2019-02-18T02:44:23.325Z,2.87
2019-02-18T02:46:52.799Z,2.57
2019-02-18T02:49:21.352Z,2.80
2019-02-18T02:51:49.892Z,3.00
2019-02-18T02:54:19.178Z,2.77
2019-02-18T02:56:47.802Z,2.53
2019-02-18T02:59:16.522Z,2.80
2019-02-18T03:01:45.233Z,3.03
2019-02-18T03:04:13.778Z,2.60
2019-02-18T03:06:42.302Z,2.47
2019-02-18T03:09:10.881Z,3.00
2019-02-18T03:11:39.426Z,2.90
2019-02-18T03:14:08.048Z,3.43
2019-02-18T03:16:36.733Z,3.40
2019-02-18T03:19:05.346Z,3.30
2019-02-18T03:21:34.917Z,3.00
2019-02-18T03:24:03.454Z,2.97
2019-02-18T03:26:32.015Z,2.90
2019-02-18T03:29:18.694Z,2.80
2019-02-18T03:31:47.308Z,2.90
2019-02-18T03:34:28.302Z,2.40
2019-02-18T03:36:56.805Z,2.87
2019-02-18T03:39:25.387Z,2.83
2019-02-18T03:41:54.018Z,3.17
2019-02-18T03:44:22.545Z,3.30
2019-02-18T03:46:51.093Z,3.00
2019-02-18T03:49:19.778Z,3.30
2019-02-18T03:51:48.349Z,3.37
2019-02-18T03:54:16.895Z,3.20
2019-02-18T03:56:45.788Z,3.00
2019-02-18T03:59:14.462Z,2.97
2019-02-18T04:01:43.151Z,3.27
2019-02-18T04:04:11.824Z,3.40
2019-02-18T04:06:40.451Z,3.27
2019-02-18T04:09:09.081Z,3.30
2019-02-18T04:11:37.774Z,3.60
2019-02-18T04:14:06.435Z,3.73
2019-02-18T04:16:34.966Z,3.43
2019-02-18T04:19:03.541Z,3.53
2019-02-18T04:21:32.144Z,3.17
2019-02-18T04:24:00.695Z,3.27
2019-02-18T04:26:29.300Z,3.37
2019-02-18T04:28:57.871Z,3.53
2019-02-18T04:31:26.418Z,3.03
2019-02-18T04:33:55.117Z,3.60
2019-02-18T04:36:23.818Z,2.77
2019-02-18T04:38:59.662Z,2.83
2019-02-18T04:41:28.205Z,2.70
2019-02-18T04:43:56.821Z,3.10
2019-02-18T04:46:25.380Z,2.63
2019-02-18T04:48:54.015Z,2.77
2019-02-18T04:51:31.101Z,3.00
2019-02-18T04:53:59.721Z,3.33
2019-02-18T04:56:28.357Z,2.87
2019-02-18T04:58:56.991Z,3.30
2019-02-18T05:01:25.651Z,2.97
2019-02-18T05:03:54.322Z,3.10
2019-02-18T05:06:25.377Z,3.50
2019-02-18T05:08:53.206Z,3.40
2019-02-18T05:11:21.802Z,3.20
2019-02-18T05:13:50.335Z,3.30
2019-02-18T05:16:19.024Z,3.20
2019-02-18T05:18:47.732Z,3.30
2019-02-18T05:21:16.301Z,3.63
2019-02-18T05:23:44.837Z,3.40
2019-02-18T05:26:13.460Z,3.50
2019-02-18T05:28:42.059Z,3.30
2019-02-18T05:31:10.604Z,4.33
2019-02-18T05:33:39.189Z,4.40
2019-02-18T05:36:07.802Z,2.93
2019-02-18T05:38:36.376Z,2.97
2019-02-18T05:41:05.094Z,3.00
2019-02-18T05:43:33.675Z,2.60
2019-02-18T05:46:02.300Z,3.27
2019-02-18T05:48:33.790Z,2.67
2019-02-18T05:51:01.105Z,2.63
2019-02-18T05:53:29.839Z,3.47
2019-02-18T05:55:58.538Z,4.03
2019-02-18T05:58:27.185Z,2.57
2019-02-18T06:00:55.727Z,3.07
2019-02-18T06:03:24.510Z,3.30
2019-02-18T06:05:53.052Z,3.30
2019-02-18T06:08:21.736Z,3.77
2019-02-18T06:10:51.051Z,3.57
2019-02-18T06:13:19.696Z,3.30
2019-02-18T06:15:48.278Z,3.13
2019-02-18T06:18:16.833Z,3.03
2019-02-18T06:20:45.300Z,3.20
2019-02-18T06:23:14.269Z,3.53
2019-02-18T06:25:42.955Z,3.70
2019-02-18T06:28:11.526Z,3.20
2019-02-18T06:30:40.233Z,3.07
2019-02-18T06:33:08.799Z,3.97
2019-02-18T06:35:40.064Z,2.43
2019-02-18T06:38:08.826Z,2.83
2019-02-18T06:40:37.555Z,3.83
2019-02-18T06:43:06.251Z,3.03
2019-02-18T06:45:37.443Z,2.30
2019-02-18T06:48:08.905Z,2.20
2019-02-18T06:50:37.594Z,3.00
2019-02-18T06:53:06.223Z,2.70
2019-02-18T06:55:34.987Z,2.47
2019-02-18T06:58:07.760Z,2.50
2019-02-18T07:00:40.549Z,2.50
2019-02-18T07:03:23.018Z,2.13
2019-02-18T07:05:55.722Z,2.50
2019-02-18T07:08:28.849Z,1.83
2019-02-18T07:13:53.025Z,2.23
2019-02-18T07:16:21.730Z,2.23
2019-02-18T07:18:50.368Z,2.27
2019-02-18T07:21:19.141Z,2.70
2019-02-18T07:23:47.774Z,2.30
2019-02-18T07:26:16.580Z,2.40
2019-02-18T07:28:45.231Z,2.23
2019-02-18T07:31:13.895Z,2.43
2019-02-18T07:33:42.499Z,2.13
2019-02-18T07:36:11.366Z,2.60
2019-02-18T07:38:39.979Z,3.10
2019-02-18T07:41:08.813Z,3.00
2019-02-18T07:43:37.475Z,3.33
2019-02-18T07:46:06.107Z,3.40
2019-02-18T07:48:36.718Z,3.03
2019-02-18T07:51:05.161Z,2.60
2019-02-18T07:53:33.935Z,3.73
2019-02-18T07:56:02.682Z,3.30
2019-02-18T07:58:31.481Z,4.07
2019-02-18T08:01:00.431Z,3.53
2019-02-18T08:03:29.187Z,3.50
2019-02-18T08:05:57.850Z,2.53
2019-02-18T08:08:27.093Z,2.27
2019-02-18T08:10:55.810Z,2.93
2019-02-18T08:13:26.745Z,2.73
2019-02-18T08:15:54.765Z,2.63
2019-02-18T08:18:23.647Z,2.70
2019-02-18T08:20:54.872Z,2.60
2019-02-18T08:23:25.688Z,2.20
2019-02-18T08:25:54.496Z,2.33
2019-02-18T08:28:23.150Z,2.43
2019-02-18T08:30:51.801Z,2.40
2019-02-18T08:33:20.404Z,2.93
2019-02-18T08:35:49.042Z,2.73
2019-02-18T08:38:17.727Z,2.20
2019-02-18T08:40:46.957Z,2.73
2019-02-18T08:43:15.605Z,2.70
2019-02-18T08:45:44.351Z,2.80
2019-02-18T08:48:13.089Z,2.57
2019-02-18T08:50:41.866Z,2.73
2019-02-18T08:53:10.430Z,3.07
2019-02-18T08:55:39.089Z,2.50
2019-02-18T08:58:07.650Z,2.43
2019-02-18T09:00:36.407Z,2.53
2019-02-18T09:03:05.048Z,3.07
2019-02-18T09:05:33.687Z,3.40
2019-02-18T09:08:02.519Z,20.03
2019-02-18T09:10:33.818Z,9.87
2019-02-18T09:13:01.489Z,6.80
2019-02-18T09:15:30.308Z,5.30
2019-02-18T09:17:58.895Z,5.60
2019-02-18T09:20:27.590Z,4.00
2019-02-18T09:23:00.778Z,2.97
2019-02-18T09:25:37.034Z,3.00
2019-02-18T09:28:05.836Z,2.90
2019-02-18T09:30:36.087Z,3.43
2019-02-18T09:33:05.073Z,2.87
2019-02-18T09:35:33.977Z,3.57
2019-02-18T09:38:02.733Z,2.93
2019-02-18T09:40:32.306Z,3.90
2019-02-18T09:43:01.078Z,3.20
2019-02-18T09:45:29.808Z,3.40
2019-02-18T09:47:58.529Z,3.30
2019-02-18T09:50:27.237Z,3.07
2019-02-18T09:52:55.838Z,2.70
2019-02-18T09:55:24.595Z,2.53
2019-02-18T09:57:53.290Z,3.40
2019-02-18T10:00:21.991Z,3.20
2019-02-18T10:02:50.694Z,2.33
2019-02-18T10:05:19.779Z,2.53
2019-02-18T10:07:48.594Z,2.77
2019-02-18T10:10:19.159Z,2.50
2019-02-18T10:12:47.842Z,2.90
2019-02-18T10:15:16.619Z,3.10
2019-02-18T10:17:45.369Z,3.40
2019-02-18T10:20:14.703Z,2.77
2019-02-18T10:22:43.424Z,2.63
2019-02-18T10:25:13.387Z,3.50
2019-02-18T10:27:42.076Z,3.77
2019-02-18T10:30:12.463Z,3.10
2019-02-18T10:32:41.033Z,7.50
2019-02-18T10:35:14.151Z,4.73
2019-02-18T10:37:43.243Z,2.80
2019-02-18T10:40:12.476Z,3.10
2019-02-18T10:42:41.187Z,2.00
2019-02-18T10:45:12.466Z,2.33
2019-02-18T10:47:41.210Z,2.50
2019-02-18T10:50:11.711Z,2.40
2019-02-18T10:52:40.539Z,2.50
2019-02-18T10:55:10.417Z,2.40
2019-02-18T10:57:39.571Z,2.20
2019-02-18T11:00:13.551Z,2.17
2019-02-18T11:02:42.206Z,2.77
2019-02-18T11:05:10.965Z,2.90
2019-02-18T11:07:39.653Z,2.80
2019-02-18T11:10:15.684Z,3.05
2019-02-18T11:12:44.423Z,2.92
2019-02-18T11:15:14.123Z,2.98
2019-02-18T11:17:43.156Z,2.30
2019-02-18T11:20:13.157Z,2.75
2019-02-18T11:22:42.866Z,2.95
2019-02-18T11:25:14.630Z,3.20
2019-02-18T11:27:43.339Z,3.30
2019-02-18T11:30:19.414Z,3.12
2019-02-18T11:32:51.153Z,2.80
2019-02-18T11:35:19.827Z,3.02
2019-02-18T11:37:48.510Z,3.50
2019-02-18T11:40:18.275Z,2.83
2019-02-18T11:42:47.010Z,3.22
2019-02-18T11:45:16.800Z,2.95
2019-02-18T11:47:45.479Z,2.90
2019-02-18T11:50:15.726Z,3.35
2019-02-18T11:52:44.450Z,3.35
2019-02-18T11:55:13.914Z,3.67
2019-02-18T11:57:42.890Z,3.22
2019-02-18T12:00:15.822Z,3.15
2019-02-18T12:02:44.390Z,3.47
2019-02-18T12:05:13.286Z,3.52
2019-02-18T12:07:41.985Z,3.83
2019-02-18T12:10:12.761Z,3.08
2019-02-18T12:12:41.713Z,3.27
2019-02-18T12:15:13.337Z,3.02
2019-02-18T12:17:42.130Z,3.27
2019-02-18T12:20:18.189Z,3.20
2019-02-18T12:23:06.218Z,3.77
2019-02-18T12:25:34.811Z,3.67
2019-02-18T12:28:03.472Z,3.70
2019-02-18T12:30:32.579Z,3.17
2019-02-18T12:33:01.351Z,3.10
2019-02-18T12:35:31.423Z,3.07
2019-02-18T12:38:00.214Z,2.97
2019-02-18T12:40:28.979Z,3.00
2019-02-18T12:43:02.371Z,2.73
2019-02-18T12:45:31.070Z,3.87
2019-02-18T12:47:59.895Z,3.60
2019-02-18T12:50:28.679Z,3.67
2019-02-18T12:52:57.522Z,3.27
2019-02-18T12:55:26.251Z,3.40
2019-02-18T12:57:56.670Z,3.77
2019-02-18T13:00:25.693Z,3.27
2019-02-18T13:02:54.490Z,4.00
2019-02-18T13:05:23.613Z,3.43
2019-02-18T13:07:52.347Z,3.53
2019-02-18T13:10:21.354Z,2.87
2019-02-18T13:12:50.106Z,3.33
2019-02-18T13:15:19.025Z,3.13
2019-02-18T13:17:47.683Z,3.63
2019-02-18T13:20:16.388Z,3.33
2019-02-18T13:22:45.009Z,3.13
2019-02-18T13:25:13.898Z,3.40
2019-02-18T13:27:42.744Z,3.30
2019-02-18T13:30:14.016Z,3.17
2019-02-18T13:32:42.714Z,2.87
2019-02-18T13:35:11.381Z,3.10
2019-02-18T13:37:40.150Z,2.93
2019-02-18T13:40:09.461Z,2.57
2019-02-18T13:42:38.059Z,2.60
2019-02-18T13:45:08.250Z,2.57
2019-02-18T13:47:36.962Z,2.63
2019-02-18T13:50:11.331Z,2.70
2019-02-18T13:52:40.085Z,2.97
2019-02-18T13:55:11.394Z,2.43
2019-02-18T13:57:40.773Z,3.00
2019-02-18T14:00:18.832Z,2.87
2019-02-18T14:02:48.225Z,2.27
2019-02-18T14:05:17.911Z,2.83
2019-02-18T14:07:46.724Z,3.30
2019-02-18T14:10:16.625Z,2.23
2019-02-18T14:12:47.645Z,2.77
2019-02-18T14:15:17.434Z,2.13
2019-02-18T14:17:46.318Z,2.47
2019-02-18T14:20:17.026Z,2.10
2019-02-18T14:22:46.086Z,2.03
2019-02-18T14:25:15.445Z,2.50
2019-02-18T14:27:46.120Z,2.60
2019-02-18T14:30:16.855Z,3.20
2019-02-18T14:32:45.610Z,3.87
2019-02-18T14:35:16.405Z,4.03
2019-02-18T14:37:45.629Z,4.87
2019-02-18T14:40:17.646Z,4.17
2019-02-18T14:42:46.440Z,3.07
2019-02-18T14:45:15.713Z,3.60
2019-02-18T14:47:44.426Z,3.80
2019-02-18T14:50:14.910Z,5.47
2019-02-18T14:52:43.822Z,4.73
2019-02-18T14:55:12.636Z,4.57
2019-02-18T14:57:41.366Z,4.20
2019-02-18T15:00:17.010Z,3.53
2019-02-18T15:02:45.734Z,4.30
2019-02-18T15:05:14.677Z,3.27
2019-02-18T15:07:43.788Z,3.20
2019-02-18T15:10:13.670Z,2.77
2019-02-18T15:12:42.329Z,2.30
2019-02-18T15:15:11.247Z,2.67
2019-02-18T15:17:39.850Z,3.40
2019-02-18T15:20:09.160Z,3.10
2019-02-18T15:22:38.849Z,3.50
2019-02-18T15:25:09.402Z,3.00
2019-02-18T15:27:38.154Z,2.40
2019-02-18T15:30:16.153Z,2.80
2019-02-18T15:32:45.007Z,2.77
2019-02-18T15:35:15.164Z,2.67
2019-02-18T15:37:43.834Z,2.57
2019-02-18T15:40:14.208Z,3.20
2019-02-18T15:42:42.862Z,3.03
2019-02-18T15:45:12.536Z,2.87
2019-02-18T15:47:41.279Z,2.80
2019-02-18T15:50:12.030Z,2.90
2019-02-18T15:52:40.678Z,3.27
2019-02-18T15:55:10.796Z,3.10
2019-02-18T15:57:39.495Z,3.50
2019-02-18T16:00:17.827Z,3.30
2019-02-18T16:02:46.838Z,3.30
2019-02-18T16:05:15.649Z,4.33
2019-02-18T16:07:44.332Z,3.60
2019-02-18T16:10:14.030Z,3.67
2019-02-18T16:12:50.232Z,3.27
2019-02-18T16:15:13.080Z,3.67
2019-02-18T16:17:42.102Z,3.53
2019-02-18T16:20:12.693Z,3.57
2019-02-18T16:22:41.359Z,3.40
2019-02-18T16:25:13.080Z,3.73
2019-02-18T16:27:41.656Z,3.53
2019-02-18T16:30:13.015Z,3.30
2019-02-18T16:32:42.020Z,3.30
2019-02-18T16:35:11.450Z,4.00
2019-02-18T16:37:40.426Z,3.33
2019-02-18T16:40:14.534Z,4.13
2019-02-18T16:42:43.170Z,3.83
2019-02-18T16:45:13.980Z,4.20
2019-02-18T16:47:42.668Z,5.13
2019-02-18T16:50:11.531Z,4.40
2019-02-18T16:52:40.122Z,4.40
2019-02-18T16:55:11.102Z,5.27
2019-02-18T16:57:39.736Z,4.13
2019-02-18T17:00:21.964Z,3.90
2019-02-18T17:02:51.101Z,4.20
2019-02-18T17:05:19.937Z,4.30
2019-02-18T17:07:48.721Z,4.20
2019-02-18T17:10:17.413Z,4.27
2019-02-18T17:12:46.513Z,4.30
2019-02-18T17:15:15.254Z,4.90
2019-02-18T17:17:44.478Z,5.47
2019-02-18T17:20:13.295Z,7.13
2019-02-18T17:22:42.055Z,6.77
2019-02-18T17:25:12.289Z,7.57
2019-02-18T17:27:40.984Z,6.80
2019-02-18T17:30:14.958Z,7.10
2019-02-18T17:32:43.807Z,8.10
2019-02-18T17:35:14.008Z,15.03
2019-02-18T17:37:42.637Z,8.20
2019-02-18T17:40:16.126Z,7.57
2019-02-18T17:42:45.211Z,8.03
2019-02-18T17:45:16.002Z,7.97
2019-02-18T17:47:44.712Z,7.73
2019-02-18T17:50:17.233Z,8.40
2019-02-18T17:52:46.629Z,8.00
2019-02-18T17:55:16.963Z,7.43
2019-02-18T17:57:45.699Z,8.17
2019-02-18T18:00:22.919Z,8.37
2019-02-18T18:02:51.744Z,7.60
2019-02-18T18:05:20.466Z,7.70
2019-02-18T18:07:49.194Z,8.30
2019-02-18T18:10:19.457Z,9.17
2019-02-18T18:12:48.186Z,9.23
2019-02-18T18:15:18.483Z,9.60
2019-02-18T18:17:58.611Z,9.60
2019-02-18T18:20:28.068Z,9.37
2019-02-18T18:22:57.165Z,9.30
2019-02-18T18:25:25.855Z,9.20
2019-02-18T18:27:54.533Z,9.73
2019-02-18T18:30:23.163Z,8.97
2019-02-18T18:32:51.872Z,9.37
2019-02-18T18:35:20.559Z,8.57
2019-02-18T18:37:49.185Z,9.27
2019-02-18T18:40:20.183Z,9.97
2019-02-18T18:42:48.825Z,9.33
2019-02-18T18:45:18.326Z,8.97
2019-02-18T18:47:46.983Z,10.17
2019-02-18T18:50:27.290Z,9.80
2019-02-18T18:52:56.159Z,8.97
2019-02-18T18:55:24.882Z,9.27
2019-02-18T18:57:53.597Z,12.77
2019-02-18T19:00:25.783Z,9.77
2019-02-18T19:02:54.477Z,8.17
2019-02-18T19:05:23.564Z,9.77
2019-02-18T19:07:52.255Z,9.10
2019-02-18T19:10:20.949Z,8.33
2019-02-18T19:12:49.604Z,9.43
2019-02-18T19:15:20.950Z,8.73
2019-02-18T19:17:49.919Z,9.40
2019-02-18T19:20:18.553Z,9.43
2019-02-18T19:22:47.189Z,8.57
2019-02-18T19:25:15.924Z,8.47
2019-02-18T19:27:44.605Z,8.30
2019-02-18T19:30:24.890Z,8.97
2019-02-18T19:32:53.644Z,8.27
2019-02-18T19:35:22.281Z,8.03
2019-02-18T19:37:51.142Z,7.73
2019-02-18T19:40:19.908Z,7.33
2019-02-18T19:42:48.519Z,8.00
2019-02-18T19:45:24.664Z,7.10
2019-02-18T19:47:53.304Z,7.30
2019-02-18T19:50:22.077Z,8.23
2019-02-18T19:52:50.620Z,8.60
2019-02-18T19:55:19.404Z,8.83
2019-02-18T19:57:48.546Z,8.53
2019-02-18T20:00:19.101Z,8.60
2019-02-18T20:02:48.038Z,8.10
2019-02-18T20:05:16.818Z,7.90
2019-02-18T20:07:45.506Z,8.30
2019-02-18T20:10:14.348Z,8.87
2019-02-18T20:12:42.976Z,9.07
2019-02-18T20:15:16.632Z,8.67
2019-02-18T20:17:45.342Z,8.13
2019-02-18T20:20:16.379Z,8.70
2019-02-18T20:22:45.172Z,9.23
2019-02-18T20:25:13.952Z,8.67
2019-02-18T20:27:42.734Z,8.90
2019-02-18T20:30:16.056Z,8.10
2019-02-18T20:32:44.816Z,8.40
2019-02-18T20:35:13.739Z,9.90
2019-02-18T20:37:42.359Z,8.33
2019-02-18T20:40:11.747Z,8.67
2019-02-18T20:42:40.685Z,9.30
2019-02-18T20:45:12.299Z,9.27
2019-02-18T20:47:41.019Z,9.17
2019-02-18T20:50:11.777Z,9.83
2019-02-18T20:52:40.533Z,10.10
2019-02-18T20:55:11.794Z,10.13
2019-02-18T20:57:40.504Z,9.80
2019-02-18T21:00:14.633Z,10.70
2019-02-18T21:02:43.229Z,10.53
2019-02-18T21:05:11.860Z,10.90
2019-02-18T21:07:40.540Z,10.07
2019-02-18T21:10:17.671Z,10.27
2019-02-18T21:12:46.433Z,10.27
2019-02-18T21:15:15.201Z,9.87
2019-02-18T21:17:43.791Z,10.13
2019-02-18T21:20:13.891Z,9.93
2019-02-18T21:22:42.497Z,9.63
2019-02-18T21:25:11.619Z,10.37
2019-02-18T21:27:40.241Z,9.37
2019-02-18T21:30:14.618Z,9.07
2019-02-18T21:32:43.158Z,9.17
2019-02-18T21:35:11.980Z,10.07
2019-02-18T21:37:41.095Z,9.20
2019-02-18T21:40:10.903Z,9.67
2019-02-18T21:42:39.526Z,10.73
2019-02-18T21:45:13.152Z,11.77
2019-02-18T21:47:41.846Z,10.37
2019-02-18T21:50:11.433Z,8.70
2019-02-18T21:52:40.423Z,7.57
2019-02-18T21:55:10.622Z,7.17
2019-02-18T21:57:39.278Z,7.00
2019-02-18T22:00:12.640Z,7.47
2019-02-18T22:02:41.325Z,7.20
2019-02-18T22:05:10.062Z,7.37
2019-02-18T22:07:38.687Z,7.50
2019-02-18T22:10:09.138Z,6.30
2019-02-18T22:12:37.883Z,5.50
2019-02-18T22:15:08.388Z,5.37
2019-02-18T22:17:37.429Z,5.03
2019-02-18T22:20:08.936Z,4.60
2019-02-18T22:22:37.781Z,4.70
2019-02-18T22:25:09.520Z,4.93
2019-02-18T22:27:38.738Z,4.57
2019-02-18T22:30:13.246Z,4.80
2019-02-18T22:32:41.955Z,4.23
2019-02-18T22:35:10.753Z,4.60
2019-02-18T22:37:39.516Z,4.10
2019-02-18T22:40:10.154Z,4.53
2019-02-18T22:42:38.836Z,3.93
2019-02-18T22:45:10.069Z,4.13
2019-02-18T22:47:38.788Z,4.00
2019-02-18T22:50:10.263Z,4.20
2019-02-18T22:52:38.963Z,4.43
2019-02-18T22:55:09.635Z,4.27
2019-02-18T22:57:38.273Z,4.30
2019-02-18T23:00:28.288Z,4.03
2019-02-18T23:02:57.229Z,3.57
2019-02-18T23:05:25.938Z,3.90
2019-02-18T23:07:54.562Z,3.60
2019-02-18T23:10:23.447Z,3.90
2019-02-18T23:12:52.011Z,3.60
2019-02-18T23:15:20.678Z,3.53
2019-02-18T23:17:49.247Z,3.73
2019-02-18T23:20:17.835Z,3.63
2019-02-18T23:22:46.496Z,3.90
2019-02-18T23:25:15.123Z,3.63
2019-02-18T23:27:43.685Z,3.70
2019-02-18T23:30:12.385Z,4.00
2019-02-18T23:32:41.059Z,3.73
2019-02-18T23:35:10.128Z,3.83
2019-02-18T23:37:38.657Z,3.80
2019-02-18T23:40:07.392Z,4.27
2019-02-18T23:42:36.429Z,4.00
2019-02-18T23:45:05.220Z,3.50
2019-02-18T23:47:33.754Z,4.60
2019-02-18T23:50:02.410Z,4.37
2019-02-18T23:52:30.921Z,3.90
2019-02-18T23:54:59.442Z,4.30
2019-02-18T23:57:28.542Z,3.93
2019-02-18T23:59:57.070Z,3.80
